Time;durP1;ratioP1;P1;durP2;ratioP2;P2;SDS_P1;SDS_P2;PMS_P1;PMS_P2;Temp;Humidity;BMP_temperature;BMP_pressure;BME280_temperature;BME280_humidity;BME280_pressure;Samples;Min_cycle;Max_cycle;Signal;HPM_P1;HPM_P2
2023/09/12 00:00:41;;;;;;;9.60;8.60;;;23.90;85.00;;;;;;5033342;28;20136;-31
2023/09/12 00:03:08;;;;;;;9.70;8.70;;;;;;;;;;5032335;28;20582;-30
2023/09/12 00:05:36;;;;;;;10.23;9.23;;;23.70;87.40;;;;;;5032507;28;20481;-31
2023/09/12 00:08:03;;;;;;;9.38;8.38;;;23.10;87.80;;;;;;5032776;28;20128;-30
2023/09/12 00:10:30;;;;;;;9.38;8.35;;;23.30;74.50;;;;;;5032924;28;20061;-30
2023/09/12 00:13:00;;;;;;;10.02;8.13;;;;;;;;;;5032772;28;20049;-31
2023/09/12 00:15:27;;;;;;;10.85;8.80;;;23.10;87.20;;;;;;5032587;28;20045;-30
2023/09/12 00:17:54;;;;;;;10.20;9.20;;;;;;;;;;5032801;28;20128;-31
2023/09/12 00:20:21;;;;;;;9.68;8.68;;;24.30;82.50;;;;;;5032685;28;20128;-31
2023/09/12 00:22:49;;;;;;;10.55;8.55;;;23.60;87.70;;;;;;5032468;28;20469;-31
2023/09/12 00:25:15;;;;;;;10.68;9.02;;;23.30;87.10;;;;;;5032691;28;20136;-31
2023/09/12 00:27:42;;;;;;;11.15;9.45;;;23.50;87.90;;;;;;5032375;28;20148;-31
2023/09/12 00:30:10;;;;;;;9.20;8.30;;;24.20;82.20;;;;;;5032720;28;20136;-30
2023/09/12 00:32:36;;;;;;;9.25;8.35;;;23.00;87.80;;;;;;5032205;28;20132;-31
2023/09/12 00:35:03;;;;;;;10.23;9.13;;;23.30;79.00;;;;;;5032303;28;20133;-30
2023/09/12 00:37:30;;;;;;;11.13;8.77;;;23.30;87.20;;;;;;5031753;28;20558;-31
2023/09/12 00:39:58;;;;;;;10.23;8.73;;;23.50;88.10;;;;;;5031949;28;20151;-31
2023/09/12 00:42:26;;;;;;;9.63;8.20;;;22.80;86.70;;;;;;5032189;28;20483;-30
2023/09/12 00:44:52;;;;;;;9.75;8.18;;;23.20;87.10;;;;;;5032418;28;20140;-31
2023/09/12 00:47:20;;;;;;;9.73;8.23;;;;;;;;;;5032011;28;20549;-30
2023/09/12 00:49:46;;;;;;;8.38;7.47;;;23.30;87.20;;;;;;5040052;28;20123;-31
2023/09/12 00:52:13;;;;;;;9.05;8.07;;;24.40;87.80;;;;;;5051954;28;20128;-31
2023/09/12 00:54:40;;;;;;;9.35;8.38;;;23.30;82.10;;;;;;5051824;28;20143;-30
2023/09/12 00:57:08;;;;;;;8.95;8.10;;;23.60;87.20;;;;;;5040671;28;20561;-31
2023/09/12 00:59:35;;;;;;;9.45;8.38;;;24.60;87.90;;;;;;5032108;28;20132;-31
2023/09/12 01:02:02;;;;;;;8.32;7.45;;;23.40;87.60;;;;;;5031952;28;20129;-31
2023/09/12 01:04:29;;;;;;;9.57;8.55;;;24.20;87.80;;;;;;5031970;28;20078;-31
2023/09/12 01:06:56;;;;;;;9.57;8.63;;;;;;;;;;5031631;28;20158;-30
2023/09/12 01:09:23;;;;;;;10.40;8.63;;;23.40;87.20;;;;;;5031894;28;20133;-31
2023/09/12 01:11:50;;;;;;;10.60;8.82;;;;;;;;;;5031994;28;20076;-30
2023/09/12 01:14:18;;;;;;;9.23;8.23;;;23.40;72.00;;;;;;5031256;28;20581;-31
2023/09/12 01:16:45;;;;;;;9.30;7.72;;;24.20;87.60;;;;;;5030539;28;20124;-30
2023/09/12 01:19:14;;;;;;;9.57;7.68;;;23.20;87.20;;;;;;5031954;28;20468;-31
2023/09/12 01:22:17;;;;;;;9.20;8.13;;;23.20;87.90;;;;;;5031641;28;20103;-30
2023/09/12 01:24:56;;;;;;;9.95;8.35;;;23.60;87.50;;;;;;5031818;28;20140;-31
2023/09/12 01:27:26;;;;;;;9.48;8.45;;;23.20;83.70;;;;;;5031562;28;20133;-30
2023/09/12 01:29:57;;;;;;;8.82;7.93;;;22.60;86.90;;;;;;5031450;28;20081;-30
2023/09/12 01:32:23;;;;;;;11.25;8.48;;;23.80;88.10;;;;;;5031275;28;20128;-31
2023/09/12 01:34:50;;;;;;;9.10;8.02;;;23.40;75.60;;;;;;5031872;28;20132;-30
2023/09/12 01:37:17;;;;;;;10.10;8.68;;;;;;;;;;5031050;28;20125;-30
2023/09/12 01:39:44;;;;;;;10.10;9.00;;;23.30;81.70;;;;;;5031735;28;20132;-31
2023/09/12 01:42:11;;;;;;;8.57;7.75;;;23.30;71.90;;;;;;5031287;28;20124;-31
2023/09/12 01:44:39;;;;;;;9.02;7.95;;;23.00;87.30;;;;;;5031161;28;20524;-30
2023/09/12 01:47:06;;;;;;;8.70;7.70;;;23.10;87.50;;;;;;5011742;28;20128;-31
2023/09/12 01:49:33;;;;;;;8.77;7.88;;;;;;;;;;5023434;28;20176;-31
2023/09/12 01:52:00;;;;;;;9.93;8.18;;;23.30;87.60;;;;;;5051434;28;20136;-31
2023/09/12 01:54:27;;;;;;;9.55;7.75;;;;;;;;;;5051290;28;20132;-31
2023/09/12 01:56:55;;;;;;;9.00;8.13;;;22.90;77.70;;;;;;5051176;28;20131;-30
2023/09/12 01:59:22;;;;;;;9.88;8.30;;;23.20;83.80;;;;;;5051164;28;20556;-30
2023/09/12 02:01:50;;;;;;;9.05;8.15;;;23.60;87.60;;;;;;5044986;28;20124;-30
2023/09/12 02:04:17;;;;;;;9.23;8.32;;;22.70;87.30;;;;;;5031121;28;20148;-31
2023/09/12 02:06:44;;;;;;;9.50;8.40;;;;;;;;;;5031298;28;20132;-30
2023/09/12 02:09:10;;;;;;;10.07;8.02;;;24.00;88.20;;;;;;5031373;28;20133;-30
2023/09/12 02:11:37;;;;;;;9.20;8.20;;;23.60;87.70;;;;;;5031278;28;20128;-31
2023/09/12 02:14:04;;;;;;;9.55;8.55;;;23.60;75.00;;;;;;5031143;28;20136;-30
2023/09/12 02:16:32;;;;;;;10.30;8.13;;;23.40;87.60;;;;;;5031178;28;20469;-31
2023/09/12 02:19:00;;;;;;;9.02;8.00;;;23.50;88.00;;;;;;5031095;28;20132;-31
2023/09/12 02:21:26;;;;;;;9.00;8.02;;;23.00;86.90;;;;;;5031234;28;20148;-31
2023/09/12 02:23:53;;;;;;;11.00;8.68;;;24.10;88.50;;;;;;5031118;28;20136;-30
2023/09/12 02:26:20;;;;;;;8.88;7.97;;;;;;;;;;5030742;28;20164;-30
2023/09/12 02:28:47;;;;;;;8.65;7.78;;;23.20;87.10;;;;;;5035007;28;20124;-31
2023/09/12 02:31:14;;;;;;;8.68;7.78;;;23.00;87.50;;;;;;5035028;28;20140;-31
2023/09/12 02:33:41;;;;;;;8.50;7.70;;;;;;;;;;5034634;28;20128;-30
2023/09/12 02:36:09;;;;;;;8.80;7.85;;;23.20;87.20;;;;;;5033788;28;20132;-31
2023/09/12 02:38:35;;;;;;;8.85;7.88;;;23.20;87.20;;;;;;5034604;28;20085;-31
2023/09/12 02:41:03;;;;;;;9.48;8.15;;;23.50;88.10;;;;;;5034472;28;20128;-31
2023/09/12 02:43:30;;;;;;;8.88;7.97;;;23.00;87.40;;;;;;5034322;28;20045;-31
2023/09/12 02:45:57;;;;;;;9.35;7.93;;;;;;;;;;5034575;28;20060;-30
2023/09/12 02:48:23;;;;;;;9.10;7.78;;;22.20;86.50;;;;;;5034569;28;20455;-31
2023/09/12 02:50:50;;;;;;;9.85;7.72;;;22.50;87.60;;;;;;5042424;28;20140;-30
2023/09/12 02:53:18;;;;;;;8.10;7.30;;;23.20;71.80;;;;;;5034187;28;20132;-30
2023/09/12 02:55:45;;;;;;;9.80;8.18;;;;;;;;;;5034316;28;20132;-30
2023/09/12 02:58:12;;;;;;;9.27;7.68;;;23.20;82.30;;;;;;5034363;28;20137;-30
2023/09/12 03:00:39;;;;;;;9.85;8.10;;;23.20;87.90;;;;;;5034203;28;20613;-30
2023/09/12 03:03:06;;;;;;;9.98;7.68;;;23.00;87.10;;;;;;5034237;28;20050;-31
2023/09/12 03:05:33;;;;;;;9.50;8.27;;;23.00;86.90;;;;;;5033850;28;20509;-31
2023/09/12 03:08:00;;;;;;;9.48;7.85;;;23.20;85.90;;;;;;5033896;28;20045;-30
2023/09/12 03:10:28;;;;;;;8.82;7.88;;;23.10;86.60;;;;;;5034072;28;20132;-31
2023/09/12 03:12:55;;;;;;;9.05;7.88;;;23.60;87.70;;;;;;5033920;28;20132;-31
2023/09/12 03:15:22;;;;;;;8.77;7.88;;;;;;;;;;5034258;28;20124;-30
2023/09/12 03:17:48;;;;;;;9.13;8.23;;;22.50;86.80;;;;;;5033771;28;20217;-31
2023/09/12 03:20:16;;;;;;;9.18;8.25;;;;;;;;;;5033716;28;20137;-31
2023/09/12 03:22:43;;;;;;;9.40;7.97;;;;;;;;;;5033463;28;20132;-31
2023/09/12 03:25:09;;;;;;;9.80;8.52;;;22.70;87.20;;;;;;5033853;28;20120;-31
2023/09/12 03:27:37;;;;;;;9.45;7.75;;;23.10;71.70;;;;;;5033447;28;20502;-30
2023/09/12 03:30:06;;;;;;;8.40;7.60;;;23.50;82.00;;;;;;5033685;28;20140;-30
2023/09/12 03:32:33;;;;;;;9.23;8.13;;;;;;;;;;5028964;28;20256;-31
2023/09/12 03:35:00;;;;;;;9.45;8.45;;;24.20;88.00;;;;;;5013811;28;20129;-31
2023/09/12 03:37:27;;;;;;;9.90;8.50;;;23.40;80.80;;;;;;5026672;28;20045;-31
2023/09/12 03:39:53;;;;;;;8.45;7.65;;;23.20;87.50;;;;;;5032276;28;20477;-31
2023/09/12 03:42:21;;;;;;;9.40;8.43;;;;;;;;;;5033376;28;20133;-29
2023/09/12 03:44:49;;;;;;;9.07;8.02;;;23.20;87.90;;;;;;5033218;28;20116;-29
2023/09/12 03:47:16;;;;;;;9.18;8.27;;;;;;;;;;5033358;28;20136;-29
2023/09/12 03:49:43;;;;;;;9.18;8.18;;;23.00;75.10;;;;;;5040555;28;20239;-29
2023/09/12 03:52:10;;;;;;;8.52;7.72;;;;;;;;;;5053320;28;20129;-28
2023/09/12 03:54:37;;;;;;;9.52;8.02;;;;;;;;;;5052997;28;20148;-29
2023/09/12 03:57:04;;;;;;;8.73;7.82;;;22.50;77.80;;;;;;5036539;28;20076;-29
2023/09/12 03:59:31;;;;;;;9.25;7.93;;;23.30;77.70;;;;;;5033366;28;20133;-29
2023/09/12 04:01:59;;;;;;;9.20;8.30;;;22.70;86.80;;;;;;5032849;28;20087;-28
2023/09/12 04:04:26;;;;;;;9.50;8.55;;;22.80;87.70;;;;;;5032825;28;20136;-29
2023/09/12 04:06:52;;;;;;;9.75;8.48;;;24.30;87.80;;;;;;5032794;28;20133;-29
2023/09/12 04:09:19;;;;;;;8.70;7.80;;;;;;;;;;5032891;28;20124;-30
2023/09/12 04:11:46;;;;;;;9.02;8.05;;;23.30;88.00;;;;;;5032709;28;20137;-28
2023/09/12 04:14:14;;;;;;;9.45;8.45;;;23.10;87.50;;;;;;5032778;28;20124;-28
2023/09/12 04:16:41;;;;;;;9.63;8.02;;;;;;;;;;5032504;28;20491;-28
2023/09/12 04:19:09;;;;;;;9.25;8.13;;;24.00;84.40;;;;;;5032986;28;20496;-29
2023/09/12 04:21:36;;;;;;;8.85;7.80;;;24.00;82.70;;;;;;5032360;28;20080;-29
2023/09/12 04:24:03;;;;;;;9.45;8.48;;;23.70;87.60;;;;;;5031641;28;20538;-29
2023/09/12 04:26:30;;;;;;;9.68;8.68;;;;;;;;;;5029042;28;20041;-30
2023/09/12 04:28:58;;;;;;;8.73;7.85;;;;;;;;;;5031938;28;20103;-29
2023/09/12 04:31:24;;;;;;;10.40;8.27;;;23.80;81.80;;;;;;5031826;28;20133;-29
2023/09/12 04:33:52;;;;;;;9.23;8.00;;;24.00;88.40;;;;;;5031629;28;20052;-29
2023/09/12 04:36:20;;;;;;;9.23;8.05;;;21.90;80.40;;;;;;5028878;28;20049;-29
2023/09/12 04:38:46;;;;;;;9.63;8.63;;;23.10;86.90;;;;;;5031989;28;20042;-28
2023/09/12 04:41:15;;;;;;;9.02;8.13;;;23.50;88.20;;;;;;5032184;28;20120;-29
2023/09/12 04:43:43;;;;;;;8.65;7.75;;;;;;;;;;5031602;28;20064;-31
2023/09/12 04:46:09;;;;;;;8.60;7.70;;;22.50;87.20;;;;;;5031248;28;20124;-29
2023/09/12 04:48:36;;;;;;;9.55;8.57;;;;;;;;;;5031913;28;20128;-29
2023/09/12 04:51:03;;;;;;;9.05;8.15;;;23.30;87.30;;;;;;5032795;28;20121;-29
2023/09/12 04:53:34;;;;;;;8.60;7.78;;;23.00;71.50;;;;;;5031876;28;20124;-28
2023/09/12 04:56:01;;;;;;;9.10;8.20;;;23.20;87.70;;;;;;5031549;28;20494;-29
2023/09/12 04:58:27;;;;;;;8.70;7.82;;;23.00;87.80;;;;;;5031747;28;20133;-28
2023/09/12 05:00:55;;;;;;;9.55;8.55;;;23.00;71.50;;;;;;5031516;28;20148;-29
2023/09/12 05:03:21;;;;;;;9.18;8.15;;;22.60;87.50;;;;;;5031011;28;20127;-29
2023/09/12 05:05:48;;;;;;;8.65;7.75;;;23.00;87.40;;;;;;5031258;28;20136;-29
2023/09/12 05:08:15;;;;;;;8.98;8.07;;;22.80;77.80;;;;;;5031783;28;20132;-29
2023/09/12 05:10:44;;;;;;;8.80;8.00;;;22.60;87.50;;;;;;5031002;28;20558;-29
2023/09/12 05:13:11;;;;;;;8.52;7.72;;;;;;;;;;5031626;28;20081;-30
2023/09/12 05:15:39;;;;;;;8.57;7.70;;;22.50;87.50;;;;;;5031668;28;20052;-29
2023/09/12 05:18:06;;;;;;;9.00;8.10;;;23.20;87.50;;;;;;5031105;28;20049;-29
2023/09/12 05:20:33;;;;;;;8.68;7.70;;;23.10;87.20;;;;;;5031585;28;20152;-29
2023/09/12 05:22:59;;;;;;;8.68;7.65;;;22.60;74.70;;;;;;5031311;28;20128;-29
2023/09/12 05:25:26;;;;;;;8.93;8.02;;;23.10;87.00;;;;;;5031269;28;20124;-29
2023/09/12 05:27:55;;;;;;;8.43;7.50;;;22.70;86.70;;;;;;5031132;28;20077;-29
2023/09/12 05:30:22;;;;;;;8.50;7.70;;;;;;;;;;5040817;28;20049;-30
2023/09/12 05:32:48;;;;;;;8.85;7.95;;;22.80;74.30;;;;;;5041967;28;20136;-29
2023/09/12 05:35:15;;;;;;;8.85;7.95;;;22.80;86.90;;;;;;5031740;28;20128;-28
2023/09/12 05:37:42;;;;;;;9.73;8.30;;;22.70;78.00;;;;;;5031119;28;20133;-28
2023/09/12 05:40:10;;;;;;;7.93;7.13;;;23.20;87.50;;;;;;5031458;28;20164;-29
2023/09/12 05:42:36;;;;;;;9.20;8.30;;;23.50;87.30;;;;;;5031320;28;20128;-29
2023/09/12 05:45:05;;;;;;;9.00;8.10;;;22.90;87.00;;;;;;5031644;28;20124;-29
2023/09/12 05:47:32;;;;;;;9.50;8.15;;;22.40;82.80;;;;;;5031565;28;20111;-29
2023/09/12 05:50:00;;;;;;;10.25;8.52;;;24.00;87.60;;;;;;5040551;28;20060;-29
2023/09/12 05:52:27;;;;;;;8.38;7.57;;;;;;;;;;5050964;28;20049;-31
2023/09/12 05:54:54;;;;;;;9.35;8.45;;;;;;;;;;5051273;28;20582;-29
2023/09/12 05:57:21;;;;;;;9.52;8.32;;;22.80;86.90;;;;;;5051071;28;20553;-29
2023/09/12 05:59:48;;;;;;;8.63;7.82;;;22.90;87.10;;;;;;5051336;28;20132;-29
2023/09/12 06:02:17;;;;;;;9.73;8.07;;;23.50;75.40;;;;;;5044621;28;20127;-28
2023/09/12 06:04:44;;;;;;;10.07;8.35;;;22.60;87.00;;;;;;5034827;28;20073;-28
2023/09/12 06:07:11;;;;;;;8.43;7.63;;;;;;;;;;5034997;28;20451;-29
2023/09/12 06:09:38;;;;;;;9.25;8.32;;;;;;;;;;5035236;28;20132;-29
2023/09/12 06:12:06;;;;;;;8.90;8.02;;;23.20;71.50;;;;;;5035229;28;20069;-29
2023/09/12 06:14:32;;;;;;;8.50;7.70;;;23.00;87.30;;;;;;5035036;28;20136;-29
2023/09/12 06:16:59;;;;;;;9.52;8.63;;;22.30;76.40;;;;;;5034880;28;20132;-28
2023/09/12 06:19:27;;;;;;;8.68;7.78;;;23.20;87.50;;;;;;5034948;28;20141;-29
2023/09/12 06:21:55;;;;;;;8.95;8.05;;;22.30;86.90;;;;;;5034665;28;20053;-28
2023/09/12 06:24:23;;;;;;;8.73;7.90;;;22.90;71.40;;;;;;5034840;28;20045;-30
2023/09/12 06:26:51;;;;;;;8.88;8.00;;;;;;;;;;5033754;28;20076;-29
2023/09/12 06:29:18;;;;;;;8.90;8.00;;;23.00;77.80;;;;;;5034802;28;20053;-29
2023/09/12 06:31:45;;;;;;;8.40;7.60;;;22.90;87.00;;;;;;5034797;28;20129;-28
2023/09/12 06:34:11;;;;;;;8.65;7.63;;;23.10;75.10;;;;;;5034470;28;20132;-29
2023/09/12 06:36:41;;;;;;;8.38;7.57;;;22.40;72.40;;;;;;5038374;28;20136;-28
2023/09/12 06:39:08;;;;;;;8.38;7.55;;;22.60;76.30;;;;;;5034905;28;20045;-29
2023/09/12 06:41:35;;;;;;;8.32;7.53;;;;;;;;;;5034595;28;20523;-29
2023/09/12 06:44:04;;;;;;;8.55;7.75;;;;;;;;;;5027654;28;20475;-31
2023/09/12 06:46:30;;;;;;;8.18;7.38;;;23.00;87.10;;;;;;5029783;28;20049;-29
2023/09/12 06:48:57;;;;;;;8.02;7.32;;;22.60;87.00;;;;;;5035454;28;20054;-28
2023/09/12 06:51:24;;;;;;;7.68;6.90;;;22.60;81.80;;;;;;5054227;28;20053;-29
2023/09/12 06:53:52;;;;;;;8.65;7.75;;;22.70;73.40;;;;;;5040727;28;20124;-29
2023/09/12 06:56:19;;;;;;;8.07;7.38;;;23.30;87.50;;;;;;5033806;28;20129;-29
2023/09/12 06:58:46;;;;;;;8.23;7.43;;;;;;;;;;5034248;28;20132;-30
2023/09/12 07:01:13;;;;;;;8.07;7.28;;;22.90;86.90;;;;;;5034188;28;20148;-29
2023/09/12 07:03:40;;;;;;;8.20;7.40;;;23.40;88.10;;;;;;5034034;28;20137;-28
2023/09/12 07:06:08;;;;;;;8.73;7.82;;;;;;;;;;5033688;28;20132;-29
2023/09/12 07:08:35;;;;;;;7.60;6.90;;;;;;;;;;5033928;28;20037;-29
2023/09/12 07:11:05;;;;;;;7.85;7.05;;;23.00;87.20;;;;;;5025550;28;20057;-31
2023/09/12 07:13:33;;;;;;;7.82;7.07;;;;;;;;;;5014210;28;20514;-30
2023/09/12 07:15:59;;;;;;;8.15;7.35;;;23.10;87.50;;;;;;5015408;28;20140;-31
2023/09/12 07:18:26;;;;;;;7.72;6.97;;;23.00;87.20;;;;;;5033916;28;20085;-31
2023/09/12 07:20:58;;;;;;;7.85;7.05;;;23.20;73.70;;;;;;5034027;28;20128;-30
2023/09/12 07:23:24;;;;;;;8.55;7.65;;;23.00;87.80;;;;;;5033363;28;20449;-31
2023/09/12 07:25:52;;;;;;;9.93;7.90;;;22.90;73.90;;;;;;5029709;28;20129;-30
2023/09/12 07:28:20;;;;;;;8.40;7.50;;;23.00;71.60;;;;;;5014015;28;20050;-30
2023/09/12 07:30:47;;;;;;;11.50;7.55;;;;;;;;;;5024846;28;20050;-30
2023/09/12 07:33:14;;;;;;;8.48;7.57;;;22.50;87.70;;;;;;5033738;28;20129;-31
2023/09/12 07:35:41;;;;;;;7.72;6.95;;;22.40;87.30;;;;;;5033514;28;20128;-30
2023/09/12 07:38:08;;;;;;;7.97;7.18;;;;;;;;;;5027302;28;20128;-30
2023/09/12 07:40:34;;;;;;;8.63;7.75;;;22.80;87.20;;;;;;5033762;28;20045;-31
2023/09/12 07:43:02;;;;;;;7.55;6.85;;;;;;;;;;5032615;28;20148;-30
2023/09/12 07:45:31;;;;;;;9.02;8.13;;;22.80;87.20;;;;;;5033216;28;20064;-31
2023/09/12 07:47:58;;;;;;;8.80;7.90;;;;;;;;;;5033778;28;20049;-30
2023/09/12 07:50:24;;;;;;;7.97;7.18;;;22.80;87.90;;;;;;5040545;28;20095;-31
2023/09/12 07:52:51;;;;;;;8.13;7.32;;;22.50;87.10;;;;;;5039763;28;20121;-31
2023/09/12 07:55:18;;;;;;;8.75;7.85;;;23.30;76.50;;;;;;5032571;28;20132;-30
2023/09/12 07:57:45;;;;;;;9.10;8.20;;;23.00;87.40;;;;;;5032773;28;20542;-30
2023/09/12 08:00:13;;;;;;;8.30;7.15;;;22.90;87.70;;;;;;5032655;28;20045;-31
2023/09/12 08:02:41;;;;;;;10.40;8.27;;;22.40;87.50;;;;;;5033149;28;20049;-31
2023/09/12 08:05:08;;;;;;;9.88;8.80;;;22.90;87.80;;;;;;5032902;28;20071;-30
2023/09/12 08:07:35;;;;;;;8.65;7.85;;;;;;;;;;5032873;28;20651;-30
2023/09/12 08:10:03;;;;;;;9.55;8.55;;;23.00;75.80;;;;;;5032551;28;20553;-30
2023/09/12 08:12:30;;;;;;;10.52;8.15;;;;;;;;;;5032088;28;20128;-30
2023/09/12 08:14:58;;;;;;;11.40;8.85;;;22.20;75.70;;;;;;5029914;28;20518;-31
2023/09/12 08:17:25;;;;;;;10.70;8.52;;;23.00;87.80;;;;;;5038071;28;20049;-30
2023/09/12 08:19:53;;;;;;;9.23;8.32;;;23.10;88.40;;;;;;5031305;28;20049;-30
2023/09/12 08:22:20;;;;;;;11.43;8.77;;;23.00;87.80;;;;;;5028946;28;20602;-31
2023/09/12 08:24:47;;;;;;;12.38;8.98;;;22.10;83.50;;;;;;5030189;28;20466;-30
2023/09/12 08:27:14;;;;;;;10.20;9.07;;;22.70;87.60;;;;;;5025664;28;20126;-30
2023/09/12 08:29:41;;;;;;;10.93;8.63;;;23.10;87.50;;;;;;5013277;28;20108;-31
2023/09/12 08:32:08;;;;;;;10.18;8.95;;;23.30;88.10;;;;;;5011741;28;20400;-29
2023/09/12 08:34:35;;;;;;;11.90;8.43;;;;;;;;;;5013054;28;20140;-30
2023/09/12 08:37:03;;;;;;;9.75;8.75;;;23.60;87.70;;;;;;5019350;28;20128;-28
2023/09/12 08:39:40;;;;;;;11.13;8.85;;;22.90;87.30;;;;;;5030105;28;20121;-29
2023/09/12 08:42:07;;;;;;;11.27;8.95;;;;;;;;;;5031569;28;20144;-31
2023/09/12 08:44:34;;;;;;;11.90;8.57;;;22.70;88.00;;;;;;5029721;28;20084;-29
2023/09/12 08:47:01;;;;;;;9.40;8.15;;;;;;;;;;5031603;28;20484;-29
2023/09/12 08:49:28;;;;;;;11.10;8.45;;;22.80;87.70;;;;;;5021174;28;20125;-29
2023/09/12 08:51:55;;;;;;;11.55;9.60;;;22.50;87.90;;;;;;5030514;28;20536;-29
2023/09/12 08:54:23;;;;;;;11.80;9.75;;;23.40;72.20;;;;;;5037107;28;20133;-30
2023/09/12 08:56:50;;;;;;;10.95;9.40;;;;;;;;;;5031952;28;20128;-28
2023/09/12 08:59:17;;;;;;;10.85;9.48;;;23.10;87.90;;;;;;5028350;28;20059;-29
2023/09/12 09:01:44;;;;;;;12.40;9.15;;;;;;;;;;5029997;28;20468;-29
2023/09/12 09:04:11;;;;;;;10.45;8.68;;;23.30;87.70;;;;;;5030705;28;20124;-28
2023/09/12 09:06:39;;;;;;;9.30;8.30;;;23.30;87.80;;;;;;5031970;28;20052;-29
2023/09/12 09:09:06;;;;;;;12.32;9.38;;;23.10;72.10;;;;;;5032195;28;20055;-29
2023/09/12 09:11:34;;;;;;;11.25;9.52;;;22.80;87.80;;;;;;5031187;28;20059;-29
2023/09/12 09:14:02;;;;;;;10.88;9.75;;;23.50;88.10;;;;;;5016443;28;20057;-29
2023/09/12 09:16:29;;;;;;;12.15;9.73;;;23.80;87.90;;;;;;5028744;28;20041;-29
2023/09/12 09:18:57;;;;;;;11.38;9.40;;;23.00;87.60;;;;;;5028348;28;20126;-29
2023/09/12 09:21:25;;;;;;;11.38;9.15;;;22.80;87.30;;;;;;5031997;28;20124;-29
2023/09/12 09:23:51;;;;;;;11.25;9.23;;;22.70;88.30;;;;;;5031664;28;20103;-29
2023/09/12 09:26:19;;;;;;;10.30;8.95;;;;;;;;;;5031292;28;20550;-30
2023/09/12 09:28:47;;;;;;;12.13;8.88;;;22.50;87.30;;;;;;5031751;28;20577;-29
2023/09/12 09:31:14;;;;;;;12.18;9.32;;;23.50;88.30;;;;;;5025302;28;20128;-31
2023/09/12 09:33:41;;;;;;;10.68;9.57;;;;;;;;;;5031957;28;20145;-31
2023/09/12 09:36:08;;;;;;;10.65;9.00;;;22.90;87.50;;;;;;5029897;28;20498;-31
2023/09/12 09:38:35;;;;;;;11.73;8.73;;;23.10;86.30;;;;;;5034020;28;20125;-31
2023/09/12 09:41:05;;;;;;;10.88;9.05;;;22.90;87.90;;;;;;5035347;28;20140;-31
2023/09/12 09:43:31;;;;;;;10.98;9.23;;;24.10;87.70;;;;;;5035256;28;20124;-31
2023/09/12 09:46:00;;;;;;;14.48;9.48;;;23.10;87.70;;;;;;5034860;28;20584;-31
2023/09/12 09:48:27;;;;;;;10.18;8.93;;;22.90;87.60;;;;;;5035193;28;20055;-31
2023/09/12 09:50:54;;;;;;;14.70;10.25;;;23.10;79.00;;;;;;5037015;28;20049;-31
2023/09/12 09:53:22;;;;;;;13.25;9.65;;;22.90;87.60;;;;;;5035226;28;20049;-31
2023/09/12 09:55:49;;;;;;;10.90;8.75;;;;;;;;;;5017168;28;20150;-30
2023/09/12 09:58:17;;;;;;;11.88;9.25;;;23.10;87.60;;;;;;5021240;28;20136;-29
2023/09/12 10:00:44;;;;;;;11.70;9.68;;;23.30;87.90;;;;;;5034574;28;20049;-28
2023/09/12 10:03:12;;;;;;;11.50;9.18;;;23.10;87.50;;;;;;5034894;28;20080;-29
2023/09/12 10:05:39;;;;;;;10.52;8.77;;;;;;;;;;5034533;28;20088;-28
2023/09/12 10:08:09;;;;;;;10.85;8.77;;;22.50;75.00;;;;;;5035431;28;20144;-29
2023/09/12 10:10:36;;;;;;;11.27;9.32;;;22.90;81.70;;;;;;5035516;28;20128;-29
2023/09/12 10:13:04;;;;;;;12.38;10.32;;;22.00;86.80;;;;;;5034014;28;20451;-29
2023/09/12 10:15:31;;;;;;;12.00;9.02;;;23.20;88.20;;;;;;5035209;28;20045;-29
2023/09/12 10:17:58;;;;;;;12.80;8.98;;;;;;;;;;5035336;28;20053;-30
2023/09/12 10:20:29;;;;;;;11.25;9.07;;;23.10;88.20;;;;;;5034817;28;20050;-29
2023/09/12 10:23:00;;;;;;;11.70;8.98;;;23.00;76.90;;;;;;5035185;28;20148;-29
2023/09/12 10:25:27;;;;;;;11.45;9.68;;;22.20;87.00;;;;;;5034556;28;20517;-29
2023/09/12 10:27:54;;;;;;;12.48;9.57;;;;;;;;;;5034810;28;20140;-30
2023/09/12 10:30:21;;;;;;;12.35;9.43;;;;;;;;;;5034914;28;20133;-29
2023/09/12 10:32:49;;;;;;;13.95;9.60;;;;;;;;;;5035217;28;20485;-30
2023/09/12 10:35:15;;;;;;;12.10;9.82;;;23.20;87.30;;;;;;5034830;28;20429;-29
2023/09/12 10:37:44;;;;;;;16.30;10.70;;;22.80;87.20;;;;;;5034236;28;20128;-28
2023/09/12 10:40:11;;;;;;;12.13;9.27;;;;;;;;;;5034339;28;20107;-29
2023/09/12 10:42:38;;;;;;;14.13;10.13;;;23.20;87.50;;;;;;5034535;28;20128;-29
2023/09/12 10:45:07;;;;;;;13.20;9.55;;;23.90;88.20;;;;;;5034582;28;20148;-29
2023/09/12 10:47:34;;;;;;;13.15;9.88;;;23.20;87.40;;;;;;5028663;28;20045;-29
2023/09/12 10:50:02;;;;;;;13.75;9.85;;;22.90;74.40;;;;;;5035473;28;20049;-29
2023/09/12 10:52:29;;;;;;;12.75;9.43;;;23.20;87.60;;;;;;5048143;28;20367;-29
2023/09/12 10:54:57;;;;;;;12.80;9.18;;;24.00;82.60;;;;;;5034869;28;20149;-29
2023/09/12 10:57:23;;;;;;;13.77;9.40;;;22.80;85.50;;;;;;5034736;28;20131;-29
2023/09/12 11:00:11;;;;;;;12.20;8.75;;;23.40;87.20;;;;;;5034475;28;20052;-28
2023/09/12 11:02:38;;;;;;;11.73;9.00;;;22.80;87.70;;;;;;5034415;28;20467;-29
2023/09/12 11:05:06;;;;;;;11.70;8.98;;;23.30;71.70;;;;;;5024489;28;20137;-29
2023/09/12 11:07:34;;;;;;;12.95;9.23;;;23.60;87.80;;;;;;5014396;28;20129;-29
2023/09/12 11:10:31;;;;;;;12.85;9.13;;;23.20;87.80;;;;;;5014758;28;20129;-30
2023/09/12 11:12:58;;;;;;;10.88;8.25;;;23.30;76.50;;;;;;4980291;28;20058;-30
2023/09/12 11:15:26;;;;;;;13.20;8.27;;;;;;;;;;5014187;28;20093;-31
2023/09/12 11:18:01;;;;;;;10.93;8.10;;;23.00;87.50;;;;;;5014819;28;20050;-31
2023/09/12 11:20:48;;;;;;;10.35;8.10;;;23.40;71.50;;;;;;5014379;28;20133;-30
2023/09/12 11:23:15;;;;;;;10.88;7.93;;;23.30;86.90;;;;;;5014694;28;20090;-31
2023/09/12 11:25:43;;;;;;;10.15;8.43;;;23.40;71.40;;;;;;5013735;28;20136;-30
2023/09/12 11:28:10;;;;;;;11.18;8.80;;;23.40;78.10;;;;;;5014292;28;20137;-31
2023/09/12 11:30:37;;;;;;;10.02;7.93;;;23.10;87.30;;;;;;5014113;28;20561;-31
2023/09/12 11:33:09;;;;;;;9.32;7.38;;;23.10;87.40;;;;;;5013962;28;20132;-31
2023/09/12 11:35:37;;;;;;;10.80;7.82;;;23.40;71.40;;;;;;5013918;28;20136;-31
2023/09/12 11:38:04;;;;;;;11.05;7.88;;;24.40;87.60;;;;;;5031840;28;20132;-30
2023/09/12 11:40:44;;;;;;;11.25;8.25;;;22.90;85.80;;;;;;5032588;28;20124;-31
2023/09/12 11:43:22;;;;;;;9.93;7.40;;;24.40;87.20;;;;;;5029081;28;20049;-31
2023/09/12 11:45:49;;;;;;;9.68;7.65;;;22.80;86.60;;;;;;5033523;28;20410;-30
2023/09/12 11:48:16;;;;;;;9.95;7.70;;;23.40;86.60;;;;;;5033590;28;20132;-31
2023/09/12 11:50:43;;;;;;;8.60;7.20;;;;;;;;;;5048718;28;20482;-29
2023/09/12 11:53:10;;;;;;;12.30;7.65;;;24.10;71.60;;;;;;5053628;28;20127;-28
2023/09/12 11:55:43;;;;;;;9.65;7.63;;;24.10;74.90;;;;;;5053318;28;20132;-29
2023/09/12 11:58:12;;;;;;;10.35;6.88;;;23.80;87.50;;;;;;5053527;28;20131;-29
2023/09/12 12:00:39;;;;;;;8.73;6.90;;;;;;;;;;5052096;28;20049;-29
2023/09/12 12:03:05;;;;;;;7.93;6.63;;;23.20;81.30;;;;;;5053189;28;20131;-30
2023/09/12 12:05:32;;;;;;;7.88;6.53;;;24.50;87.30;;;;;;5053431;28;20534;-29
2023/09/12 12:07:59;;;;;;;8.55;7.13;;;23.60;86.80;;;;;;5053023;28;20367;-29
2023/09/12 12:10:27;;;;;;;10.80;7.10;;;;;;;;;;5053249;28;20049;-29
2023/09/12 12:12:54;;;;;;;9.70;7.00;;;24.00;74.60;;;;;;5053325;28;20045;-29
2023/09/12 12:15:22;;;;;;;8.55;6.53;;;24.60;87.10;;;;;;5052645;28;20136;-29
2023/09/12 12:17:49;;;;;;;7.85;6.68;;;23.60;86.50;;;;;;5052626;28;20057;-29
2023/09/12 12:20:16;;;;;;;9.05;6.80;;;24.10;79.90;;;;;;5052606;28;20044;-29
2023/09/12 12:22:43;;;;;;;7.13;6.32;;;23.40;86.30;;;;;;5053010;28;20128;-30
2023/09/12 12:25:10;;;;;;;8.05;6.63;;;23.60;86.10;;;;;;5052738;28;20307;-29
2023/09/12 12:27:38;;;;;;;7.50;5.97;;;24.00;86.60;;;;;;5052565;28;20140;-29
2023/09/12 12:30:06;;;;;;;9.13;5.82;;;23.80;86.80;;;;;;5052664;28;20045;-30
2023/09/12 12:32:34;;;;;;;11.20;6.65;;;23.20;85.80;;;;;;5052665;28;20128;-29
2023/09/12 12:35:02;;;;;;;8.68;5.68;;;23.30;85.70;;;;;;5052166;28;20569;-29
2023/09/12 12:37:30;;;;;;;6.90;5.70;;;23.70;86.40;;;;;;5032154;28;20053;-29
2023/09/12 12:39:57;;;;;;;7.28;6.07;;;23.40;86.60;;;;;;5032447;28;20049;-29
2023/09/12 12:42:24;;;;;;;7.97;6.38;;;23.80;86.10;;;;;;5016485;28;20133;-29
2023/09/12 12:44:54;;;;;;;8.20;6.50;;;23.60;86.00;;;;;;5012453;28;20502;-29
2023/09/12 12:47:21;;;;;;;6.22;5.47;;;;;;;;;;5012657;28;20125;-30
2023/09/12 12:49:53;;;;;;;11.68;5.70;;;23.80;70.70;;;;;;5028735;28;20049;-30
2023/09/12 12:52:24;;;;;;;7.93;6.05;;;23.70;85.80;;;;;;5052363;28;20049;-29
2023/09/12 12:54:52;;;;;;;7.75;5.70;;;24.20;74.90;;;;;;5052179;28;20060;-31
2023/09/12 12:57:20;;;;;;;6.38;5.63;;;23.80;70.50;;;;;;5052016;28;20075;-30
2023/09/12 12:59:47;;;;;;;6.72;5.80;;;24.60;86.10;;;;;;5052287;28;20639;-31
2023/09/12 13:02:14;;;;;;;6.93;5.80;;;24.00;86.30;;;;;;5052116;28;20077;-32
2023/09/12 13:04:40;;;;;;;8.13;5.85;;;24.50;74.80;;;;;;5052012;28;20560;-31
2023/09/12 13:07:10;;;;;;;7.13;5.90;;;24.70;76.30;;;;;;5052091;28;20094;-31